Time;durP1;ratioP1;P1;durP2;ratioP2;P2;SDS_P1;SDS_P2;PMS_P1;PMS_P2;Temp;Humidity;BMP_temperature;BMP_pressure;BME280_temperature;BME280_humidity;BME280_pressure;Samples;Min_cycle;Max_cycle;Signal;HPM_P1;HPM_P2
2023/01/21 00:01:14;;;;;;;8.07;5.35;;;1.00;99.90;;;0.46;100.00;97866.25;4997548;28;20053;-70
2023/01/21 00:03:41;;;;;;;8.27;5.50;;;1.00;99.90;;;0.56;100.00;97867.94;4970304;28;20049;-70
2023/01/21 00:06:08;;;;;;;8.05;5.07;;;1.00;99.90;;;0.50;100.00;97861.97;4970459;28;20046;-70
2023/01/21 00:08:36;;;;;;;7.10;4.97;;;1.00;99.90;;;0.51;100.00;97858.59;4987563;28;20535;-70
2023/01/21 00:11:06;;;;;;;7.15;4.75;;;1.00;99.90;;;0.37;100.00;97863.66;4986769;28;20129;-70
2023/01/21 00:13:34;;;;;;;8.63;5.93;;;1.00;99.90;;;0.43;100.00;97862.81;4984476;28;20795;-70
2023/01/21 00:16:03;;;;;;;6.47;4.30;;;0.90;99.90;;;0.62;100.00;97869.69;4985802;28;20068;-70
2023/01/21 00:18:31;;;;;;;6.32;4.25;;;1.00;99.90;;;0.61;100.00;97871.34;4985577;28;20046;-70
2023/01/21 00:20:59;;;;;;;7.05;4.82;;;1.00;99.90;;;0.56;100.00;97864.56;4971827;28;20137;-69
2023/01/21 00:23:26;;;;;;;7.05;4.53;;;1.00;99.90;;;0.38;100.00;97861.09;4985584;28;20424;-70
2023/01/21 00:25:58;;;;;;;6.45;4.32;;;1.00;99.90;;;0.37;100.00;97866.22;4986771;28;20053;-70
2023/01/21 00:28:30;;;;;;;6.70;4.30;;;1.00;99.90;;;0.44;100.00;97869.66;4999795;28;21308;-70
2023/01/21 00:30:59;;;;;;;7.18;4.70;;;1.00;99.90;;;0.36;100.00;97874.72;4987845;28;20128;-69
2023/01/21 00:33:28;;;;;;;7.85;4.65;;;1.00;99.90;;;0.40;100.00;97871.31;4967665;28;20149;-69
2023/01/21 00:35:59;;;;;;;6.95;4.07;;;1.00;99.90;;;0.31;100.00;97878.97;5005026;28;20050;-70
2023/01/21 00:38:28;;;;;;;8.27;5.23;;;1.00;99.90;;;0.25;100.00;97879.81;4970665;28;20050;-71
2023/01/21 00:41:03;;;;;;;6.40;4.38;;;0.90;99.90;;;0.26;100.00;97889.16;4986928;28;20638;-70
2023/01/21 00:43:31;;;;;;;7.50;4.20;;;0.90;99.90;;;0.22;100.00;97884.88;5004313;28;20138;-70
2023/01/21 00:45:58;;;;;;;7.85;4.72;;;0.80;99.90;;;0.18;100.00;97889.16;4987827;28;20047;-69
2023/01/21 00:48:27;;;;;;;5.97;3.72;;;0.80;99.90;;;0.31;100.00;97884.06;5006342;28;20054;-70
2023/01/21 00:50:59;;;;;;;6.25;3.97;;;0.80;99.90;;;0.33;100.00;97884.94;4989234;28;20432;-70
2023/01/21 00:53:30;;;;;;;5.57;3.67;;;0.80;99.90;;;0.27;100.00;97892.56;4990636;28;20085;-69
2023/01/21 00:56:03;;;;;;;5.85;3.10;;;0.80;99.90;;;0.30;100.00;97901.09;4989580;28;20050;-70
2023/01/21 00:58:31;;;;;;;;;;;0.80;99.90;;;0.15;100.00;97901.03;5003163;28;20041;-70
2023/01/21 01:01:02;;;;;;;5.30;3.13;;;0.70;99.90;;;0.19;100.00;97906.16;5004631;28;19925;-70
2023/01/21 01:03:30;;;;;;;5.45;3.40;;;0.70;99.90;;;0.14;100.00;97907.00;4974389;28;20057;-70
2023/01/21 01:06:14;;;;;;;4.38;2.60;;;0.80;99.90;;;0.15;100.00;97911.25;4988288;28;20061;-70
2023/01/21 01:08:42;;;;;;;3.40;2.30;;;0.80;99.90;;;0.11;100.00;97909.53;4989948;28;20050;-70
2023/01/21 01:11:10;;;;;;;5.20;3.00;;;0.80;99.90;;;0.26;100.00;97911.28;5006378;28;20084;-70
2023/01/21 01:13:39;;;;;;;6.43;2.75;;;0.80;99.90;;;0.25;100.00;97918.09;4991199;28;20410;-70
2023/01/21 01:16:07;;;;;;;5.25;3.25;;;0.80;99.90;;;0.37;100.00;97918.13;4972281;28;20072;-70
2023/01/21 01:18:36;;;;;;;4.65;3.08;;;0.80;99.90;;;0.20;100.00;97924.88;4989747;28;20042;-70
2023/01/21 01:21:04;;;;;;;4.70;2.67;;;0.80;99.90;;;0.19;100.00;97924.03;5006985;28;20056;-70
2023/01/21 01:23:32;;;;;;;3.80;2.20;;;0.80;99.90;;;0.24;100.00;97926.59;5004442;28;20133;-70
2023/01/21 01:26:03;;;;;;;3.67;2.45;;;0.70;99.90;;;0.17;100.00;97929.97;5003136;28;20080;-70
2023/01/21 01:28:32;;;;;;;4.97;2.80;;;0.60;99.90;;;-0.07;100.00;97933.25;4986444;28;20252;-70
2023/01/21 01:31:00;;;;;;;3.95;2.38;;;0.60;99.90;;;0.07;100.00;97934.19;5002772;28;20046;-70
2023/01/21 01:33:27;;;;;;;3.25;1.92;;;0.60;99.90;;;-0.04;100.00;97935.84;4988476;28;20105;-69
2023/01/21 01:36:00;;;;;;;3.00;1.70;;;0.60;99.90;;;0.13;100.00;97944.41;4985273;28;20073;-70
2023/01/21 01:38:27;;;;;;;3.00;1.75;;;0.60;99.90;;;0.05;100.00;97945.25;4985967;28;20530;-70
2023/01/21 01:40:54;;;;;;;3.80;2.20;;;0.60;99.90;;;0.00;100.00;97945.22;4985672;28;20053;-70
2023/01/21 01:43:44;;;;;;;3.60;2.17;;;0.60;99.90;;;0.06;100.00;97949.50;4993179;28;20454;-69
2023/01/21 01:46:11;;;;;;;2.25;1.40;;;0.60;99.90;;;0.13;100.00;97956.31;4993477;28;20177;-70
2023/01/21 01:48:38;;;;;;;3.38;1.70;;;0.70;99.90;;;0.11;100.00;97955.47;5003122;28;20045;-70
2023/01/21 01:51:06;;;;;;;3.20;1.70;;;0.70;99.90;;;0.11;100.00;97960.56;4986955;28;20514;-70
2023/01/21 01:53:36;;;;;;;3.50;1.85;;;0.60;99.90;;;-0.12;100.00;97955.34;4992013;28;20045;-70
2023/01/21 01:56:03;;;;;;;3.50;2.00;;;0.60;99.90;;;0.06;100.00;97960.53;4974880;28;20050;-70
2023/01/21 01:58:31;;;;;;;2.63;1.60;;;0.60;99.90;;;0.07;100.00;97959.72;4990550;28;20845;-70
2023/01/21 02:00:59;;;;;;;4.15;2.15;;;0.60;99.90;;;-0.10;100.00;97968.97;4984405;28;20042;-70
2023/01/21 02:03:44;;;;;;;2.80;1.58;;;0.60;99.90;;;0.06;100.00;97964.81;5003312;28;20042;-70
2023/01/21 02:06:14;;;;;;;4.10;1.92;;;0.60;99.90;;;-0.02;100.00;97974.97;5002386;28;20042;-70
2023/01/21 02:08:44;;;;;;;2.65;1.48;;;0.60;99.90;;;0.02;100.00;97981.78;4981525;28;20046;-70
2023/01/21 02:11:19;;;;;;;3.03;1.70;;;0.60;99.90;;;0.06;100.00;97991.16;4986360;28;20069;-70
2023/01/21 02:13:53;;;;;;;2.17;1.17;;;0.60;99.90;;;-0.03;100.00;97991.13;4986919;28;20046;-70
2023/01/21 02:16:51;;;;;;;3.97;2.13;;;0.60;99.90;;;0.09;100.00;97995.44;4985277;28;20050;-70
2023/01/21 02:19:56;;;;;;;2.55;1.60;;;0.60;99.90;;;0.11;100.00;97992.03;5002484;28;20057;-70
2023/01/21 02:23:12;;;;;;;2.47;1.50;;;0.60;99.90;;;0.07;100.00;97999.69;5003448;28;20145;-69
2023/01/21 02:26:30;;;;;;;2.63;1.77;;;0.60;99.90;;;0.09;100.00;97998.00;4992633;28;20050;-69
2023/01/21 02:29:25;;;;;;;3.35;1.70;;;0.60;99.90;;;-0.02;100.00;98009.00;5003060;28;20053;-70
2023/01/21 02:32:06;;;;;;;2.30;1.20;;;0.60;99.90;;;-0.07;100.00;98012.34;4982484;28;20121;-70
2023/01/21 02:35:25;;;;;;;2.35;1.60;;;0.60;99.90;;;0.03;100.00;98019.25;4988404;28;20049;-70
2023/01/21 02:38:11;;;;;;;3.60;1.85;;;0.60;99.90;;;-0.18;100.00;98019.97;4966905;28;20149;-70
2023/01/21 02:41:17;;;;;;;3.63;2.35;;;0.50;99.90;;;-0.14;100.00;98029.31;4974353;28;21203;-70
2023/01/21 02:44:06;;;;;;;3.47;2.08;;;0.50;99.90;;;-0.14;100.00;98036.13;4971171;28;20053;-70
2023/01/21 02:47:02;;;;;;;2.88;1.90;;;0.50;99.90;;;-0.27;100.00;98041.16;4986582;28;20180;-70
2023/01/21 02:50:03;;;;;;;4.50;2.03;;;0.50;99.90;;;-0.20;100.00;98053.97;4973390;28;20567;-70
2023/01/21 02:52:30;;;;;;;2.85;1.80;;;0.40;99.90;;;-0.20;100.00;98054.81;4969750;28;20050;-70
2023/01/21 02:55:00;;;;;;;3.50;2.03;;;0.40;99.90;;;-0.26;100.00;98055.59;5001567;28;20060;-70
2023/01/21 02:57:41;;;;;;;4.93;2.95;;;0.40;99.90;;;-0.39;100.00;98052.94;4988717;28;20121;-70
2023/01/21 03:00:13;;;;;;;4.05;2.60;;;0.30;99.90;;;-0.48;100.00;98059.69;4999940;28;20137;-70
2023/01/21 03:03:11;;;;;;;4.95;3.13;;;0.30;99.90;;;-0.48;100.00;98066.44;4971215;28;20501;-70
2023/01/21 03:05:51;;;;;;;4.63;2.22;;;0.20;99.90;;;-0.42;100.00;98067.38;4986129;28;20053;-70
2023/01/21 03:08:26;;;;;;;4.70;3.25;;;0.20;99.90;;;-0.51;100.00;98069.84;5000557;28;20061;-70
2023/01/21 03:11:23;;;;;;;4.38;2.83;;;0.20;99.90;;;-0.37;100.00;98071.66;4988177;28;20041;-70
2023/01/21 03:17:36;;;;;;;5.25;3.15;;;0.20;99.90;;;-0.47;100.00;98084.31;4992737;28;20129;-70
2023/01/21 03:20:13;;;;;;;4.15;2.42;;;0.20;99.90;;;-0.45;100.00;98081.81;4972680;28;20056;-70
2023/01/21 03:22:43;;;;;;;6.07;3.70;;;0.20;99.90;;;-0.52;100.00;98083.44;4996455;28;20121;-70
2023/01/21 03:25:12;;;;;;;5.78;2.95;;;0.10;99.90;;;-0.59;100.00;98091.00;4988858;28;20069;-70
2023/01/21 03:27:44;;;;;;;5.00;2.95;;;0.20;99.90;;;-0.49;100.00;98086.00;5001911;28;20077;-70
2023/01/21 03:30:22;;;;;;;5.38;3.25;;;0.10;99.90;;;-0.61;100.00;98088.44;4986153;28;20054;-70
2023/01/21 03:32:51;;;;;;;3.33;2.20;;;0.00;99.90;;;-0.55;100.00;98101.25;4988447;28;20303;-69
2023/01/21 03:35:27;;;;;;;3.92;2.00;;;0.10;99.90;;;-0.58;100.00;98108.03;4990088;28;20060;-70
2023/01/21 03:38:12;;;;;;;4.40;2.08;;;0.10;99.90;;;-0.59;100.00;98114.81;4966481;28;20107;-70
2023/01/21 03:40:53;;;;;;;5.45;2.80;;;0.10;99.90;;;-0.76;100.00;98114.63;4989214;28;20041;-72
2023/01/21 03:43:21;;;;;;;4.80;3.20;;;0.00;99.90;;;-0.86;100.00;98120.47;4985186;28;20185;-70
2023/01/21 03:46:11;;;;;;;5.13;2.70;;;-0.10;99.90;;;-0.69;100.00;98111.28;4986772;28;20076;-69
2023/01/21 03:48:58;;;;;;;4.65;2.67;;;0.00;99.90;;;-0.69;100.00;98124.03;5001943;28;20054;-69
2023/01/21 03:51:36;;;;;;;4.47;2.53;;;0.00;99.90;;;-0.64;100.00;98122.41;4988222;28;20045;-69
2023/01/21 03:54:03;;;;;;;6.57;4.15;;;0.10;99.90;;;-0.78;100.00;98131.59;4987767;28;20060;-69
2023/01/21 03:56:30;;;;;;;8.15;3.50;;;-0.10;99.90;;;-0.90;100.00;98132.31;4999699;28;20049;-69
2023/01/21 03:58:57;;;;;;;7.47;4.68;;;0.00;99.90;;;-0.92;100.00;98133.97;5001607;28;20054;-69
2023/01/21 04:01:24;;;;;;;8.05;5.32;;;-0.10;99.90;;;-0.82;100.00;98140.06;4984293;28;20054;-69
2023/01/21 04:03:51;;;;;;;7.95;4.55;;;-0.20;99.90;;;-0.85;100.00;98145.97;4983683;28;20049;-69
2023/01/21 04:06:20;;;;;;;6.05;3.78;;;-0.20;99.90;;;-0.74;100.00;98147.78;5002024;28;20046;-70
2023/01/21 04:08:49;;;;;;;9.20;5.00;;;-0.20;99.90;;;-0.92;100.00;98143.31;4998852;28;20451;-69
2023/01/21 04:11:16;;;;;;;12.25;6.18;;;-0.20;99.90;;;-0.88;100.00;98153.56;4997248;28;20057;-69
2023/01/21 04:13:43;;;;;;;9.85;5.57;;;-0.20;99.90;;;-0.80;100.00;98156.19;4987713;28;20088;-69
2023/01/21 04:16:10;;;;;;;8.60;5.85;;;-0.20;99.90;;;-0.97;100.00;98156.00;4986157;28;20054;-70
2023/01/21 04:18:37;;;;;;;9.70;5.75;;;-0.30;99.90;;;-1.06;100.00;98163.53;4990647;28;20666;-69
2023/01/21 04:21:04;;;;;;;9.68;5.53;;;-0.40;99.90;;;-1.07;100.00;98165.25;5003629;28;20444;-69
2023/01/21 04:23:32;;;;;;;8.00;5.20;;;-0.40;99.90;;;-1.01;100.00;98167.00;5006825;28;20052;-69
2023/01/21 04:25:59;;;;;;;9.70;5.57;;;-0.40;99.90;;;-1.07;100.00;98180.53;5002827;28;20535;-69
2023/01/21 04:28:26;;;;;;;11.07;6.78;;;-0.40;99.90;;;-0.99;100.00;98183.16;4990100;28;20065;-69
2023/01/21 04:30:53;;;;;;;10.98;6.70;;;-0.40;99.90;;;-1.06;100.00;98183.94;5004528;28;20062;-69
2023/01/21 04:33:21;;;;;;;9.10;5.97;;;-0.40;99.90;;;-0.97;100.00;98189.13;4989453;28;20053;-69
2023/01/21 04:35:48;;;;;;;9.13;5.72;;;-0.30;99.90;;;-1.04;100.00;98195.00;4974430;28;20132;-69
2023/01/21 04:38:15;;;;;;;10.05;6.38;;;-0.40;99.90;;;-1.03;100.00;98194.16;4990263;28;20107;-69
2023/01/21 04:40:42;;;;;;;11.88;7.15;;;-0.40;99.90;;;-1.11;100.00;98190.66;4991779;28;20054;-69
2023/01/21 04:43:09;;;;;;;9.85;5.15;;;-0.40;99.90;;;-1.11;100.00;98198.31;5002311;28;20053;-69
2023/01/21 04:45:36;;;;;;;12.52;6.50;;;-0.40;99.90;;;-1.17;100.00;98196.50;5003680;28;20057;-69
2023/01/21 04:48:03;;;;;;;10.80;6.32;;;-0.50;99.90;;;-1.19;100.00;98199.88;4976290;28;20120;-69
2023/01/21 04:50:30;;;;;;;12.15;5.25;;;-0.50;99.90;;;-1.21;100.00;98210.03;5003533;28;20056;-69
2023/01/21 04:52:57;;;;;;;12.15;6.90;;;-0.60;99.90;;;-1.19;100.00;98208.38;5005484;28;20049;-69
2023/01/21 04:55:24;;;;;;;12.13;7.25;;;-0.50;99.90;;;-1.28;100.00;98201.47;5002072;28;20041;-69
2023/01/21 04:57:52;;;;;;;11.82;6.88;;;-0.60;99.90;;;-1.18;100.00;98216.88;5008373;28;20046;-69
2023/01/21 05:00:20;;;;;;;8.30;5.75;;;-0.50;99.90;;;-1.23;100.00;98215.94;4992272;28;20050;-69
2023/01/21 05:02:47;;;;;;;13.40;5.40;;;-0.50;99.90;;;-1.23;100.00;98221.91;5004176;28;20041;-69
2023/01/21 05:05:14;;;;;;;12.32;7.00;;;-0.50;99.90;;;-1.19;100.00;98218.56;4970556;28;20050;-70
2023/01/21 05:07:41;;;;;;;10.40;6.43;;;-0.50;99.90;;;-1.19;100.00;98217.69;4990798;28;20687;-69
2023/01/21 05:10:14;;;;;;;13.65;8.63;;;-0.50;99.90;;;-1.23;100.00;98229.56;4999472;28;20088;-69
2023/01/21 05:12:42;;;;;;;10.65;6.10;;;-0.50;99.90;;;-1.35;100.00;98227.66;4991231;28;20126;-69
2023/01/21 05:15:10;;;;;;;13.18;7.63;;;-0.60;99.90;;;-1.31;100.00;98236.22;4972662;28;20063;-69
2023/01/21 05:17:36;;;;;;;18.50;10.55;;;-0.60;99.90;;;-1.35;100.00;98234.44;4987593;28;20146;-69
2023/01/21 05:20:04;;;;;;;17.85;11.32;;;-0.60;99.90;;;-1.32;100.00;98232.81;4973063;28;20046;-69
2023/01/21 05:22:31;;;;;;;16.67;10.30;;;-0.60;99.90;;;-1.40;100.00;98239.47;4991718;28;20052;-69
2023/01/21 05:24:59;;;;;;;17.02;10.27;;;-0.70;99.90;;;-1.35;100.00;98237.00;4990038;28;20050;-68
2023/01/21 05:27:26;;;;;;;18.10;12.30;;;-0.70;99.90;;;-1.40;100.00;98242.03;4970213;28;20070;-68
2023/01/21 05:29:55;;;;;;;23.42;13.02;;;-0.70;99.90;;;-1.45;100.00;98250.44;5003745;28;20381;-69
2023/01/21 05:32:23;;;;;;;24.95;13.80;;;-0.80;99.90;;;-1.47;100.00;98242.75;4987180;28;20082;-69
2023/01/21 05:34:50;;;;;;;24.05;14.60;;;-0.80;99.90;;;-1.48;100.00;98256.34;5001946;28;20089;-69
2023/01/21 05:37:17;;;;;;;26.45;14.40;;;-0.80;99.90;;;-1.43;100.00;98264.06;4988295;28;20129;-69
2023/01/21 05:39:43;;;;;;;26.73;13.98;;;-0.80;99.90;;;-1.44;100.00;98272.50;4988912;28;20038;-69
2023/01/21 05:42:10;;;;;;;24.77;12.88;;;-0.70;99.90;;;-1.45;100.00;98271.66;5002898;28;20050;-69
2023/01/21 05:44:37;;;;;;;21.17;12.85;;;-0.70;99.90;;;-1.40;100.00;98275.13;4991693;28;20050;-69
2023/01/21 05:47:06;;;;;;;31.73;15.65;;;-0.70;99.90;;;-1.45;100.00;98288.63;4989291;28;20068;-68
2023/01/21 05:49:34;;;;;;;32.33;17.98;;;-0.80;99.90;;;-1.53;100.00;98286.81;5002105;28;20061;-68
2023/01/21 05:52:01;;;;;;;30.98;17.02;;;-0.80;99.90;;;-1.55;100.00;98288.47;4992226;28;20516;-68
2023/01/21 05:54:28;;;;;;;29.08;16.33;;;-0.80;99.90;;;-1.47;100.00;98301.31;4985295;28;20050;-69
2023/01/21 05:56:55;;;;;;;38.20;19.58;;;-0.80;99.90;;;-1.48;100.00;98294.53;5002775;28;20523;-69
2023/01/21 05:59:22;;;;;;;32.72;17.42;;;-0.80;99.90;;;-1.46;100.00;98297.94;5002328;28;20377;-69
2023/01/21 06:01:49;;;;;;;26.08;14.98;;;-0.80;99.90;;;-1.51;100.00;98304.66;4991004;28;20042;-68
2023/01/21 06:04:16;;;;;;;32.88;18.00;;;-0.80;99.90;;;-1.51;100.00;98312.28;5002025;28;20049;-69
2023/01/21 06:06:43;;;;;;;34.70;19.98;;;-0.80;99.90;;;-1.54;100.00;98312.25;5001639;28;20042;-68
2023/01/21 06:09:10;;;;;;;36.70;19.77;;;-0.80;99.90;;;-1.54;100.00;98317.34;5002956;28;20060;-68
2023/01/21 06:11:37;;;;;;;33.25;18.90;;;-0.80;99.90;;;-1.60;100.00;98315.53;5003182;28;20120;-68
2023/01/21 06:14:04;;;;;;;32.55;19.67;;;-0.80;99.90;;;-1.39;100.00;98314.16;5008909;28;20476;-68
2023/01/21 06:16:31;;;;;;;28.88;17.77;;;-0.80;99.90;;;-1.57;100.00;98320.69;5003040;28;20053;-68
2023/01/21 06:18:58;;;;;;;29.48;17.00;;;-0.80;99.90;;;-1.56;100.00;98319.00;5002083;28;20189;-69
2023/01/21 06:21:25;;;;;;;28.52;17.15;;;-0.80;99.90;;;-1.59;100.00;98324.88;4983522;28;20038;-68
2023/01/21 06:23:52;;;;;;;30.73;18.73;;;-0.90;99.90;;;-1.63;100.00;98330.75;5005963;28;20057;-68
2023/01/21 06:26:19;;;;;;;30.45;16.10;;;-0.90;99.90;;;-1.67;100.00;98328.97;5004713;28;20046;-68
2023/01/21 06:28:46;;;;;;;30.45;16.83;;;-0.90;99.90;;;-1.72;100.00;98336.53;5002651;28;20144;-68
2023/01/21 06:31:13;;;;;;;34.05;16.88;;;-1.00;99.90;;;-1.53;100.00;98335.19;4989513;28;20050;-69
2023/01/21 06:33:40;;;;;;;32.42;16.60;;;-0.90;99.90;;;-1.59;100.00;98341.84;5004223;28;20045;-69
2023/01/21 06:36:08;;;;;;;37.30;19.38;;;-0.90;99.90;;;-1.58;100.00;98341.00;5000317;28;20504;-69
2023/01/21 06:38:36;;;;;;;33.20;19.42;;;-0.80;99.90;;;-1.55;100.00;98339.41;4982287;28;20046;-69
2023/01/21 06:41:03;;;;;;;37.58;20.35;;;-0.80;99.90;;;-1.71;100.00;98339.91;5001195;28;20125;-69
2023/01/21 06:43:30;;;;;;;29.83;17.05;;;-0.90;99.90;;;-1.73;100.00;98347.56;4985056;28;20046;-69
2023/01/21 06:45:58;;;;;;;38.20;19.85;;;-0.90;99.90;;;-1.73;100.00;98360.28;5006898;28;20045;-69
2023/01/21 06:48:25;;;;;;;31.63;17.80;;;-0.90;99.90;;;-1.77;100.00;98353.41;4993450;28;20042;-69
2023/01/21 06:50:52;;;;;;;31.15;17.50;;;-1.00;99.90;;;-1.83;100.00;98357.53;4972533;28;20520;-69
2023/01/21 06:53:19;;;;;;;34.03;18.48;;;-1.00;99.90;;;-1.71;100.00;98358.63;4983546;28;20421;-69
2023/01/21 06:55:46;;;;;;;42.15;22.45;;;-1.00;99.90;;;-1.88;100.00;98371.84;5003169;28;20058;-69
2023/01/21 06:58:13;;;;;;;40.97;21.63;;;-1.10;99.90;;;-2.08;100.00;98369.75;4996540;28;20050;-69
2023/01/21 07:00:41;;;;;;;41.00;24.08;;;-1.20;99.90;;;-2.07;100.00;98381.66;5000931;28;20058;-69
2023/01/21 07:03:08;;;;;;;34.33;17.85;;;-1.30;99.90;;;-2.22;100.00;98374.56;5003126;28;20049;-68
2023/01/21 07:05:35;;;;;;;32.97;17.17;;;-1.30;99.90;;;-2.16;100.00;98381.47;5003791;28;20046;-68
2023/01/21 07:08:02;;;;;;;31.65;15.50;;;-1.30;99.90;;;-2.01;100.00;98384.31;5003131;28;20050;-69
2023/01/21 07:10:29;;;;;;;32.80;16.48;;;-1.30;99.90;;;-2.00;100.00;98396.22;4999323;28;20056;-69
2023/01/21 07:12:56;;;;;;;32.17;18.08;;;-1.20;99.90;;;-2.03;100.00;98398.72;5000902;28;20054;-69
2023/01/21 07:15:23;;;;;;;26.25;15.40;;;-1.20;99.90;;;-2.05;100.00;98402.03;5002816;28;20104;-68
2023/01/21 07:17:51;;;;;;;27.55;14.30;;;-1.20;99.90;;;-2.07;100.00;98399.47;4983137;28;20077;-68
2023/01/21 07:20:20;;;;;;;22.95;12.32;;;-1.30;99.90;;;-2.03;100.00;98403.81;5001785;28;20059;-68
2023/01/21 07:22:47;;;;;;;22.65;12.73;;;-1.30;99.90;;;-2.30;100.00;98411.69;4989770;28;20064;-68
2023/01/21 07:25:14;;;;;;;26.55;13.15;;;-1.40;99.90;;;-2.33;100.00;98404.88;4999184;28;20038;-69
2023/01/21 07:27:42;;;;;;;25.92;14.65;;;-1.50;99.90;;;-2.30;100.00;98411.69;4984126;28;20749;-69
2023/01/21 07:30:18;;;;;;;27.48;14.38;;;-1.60;99.90;;;-2.48;100.00;98401.97;5001813;28;20105;-69
2023/01/21 07:32:46;;;;;;;26.25;12.18;;;-1.70;99.90;;;-2.33;100.00;98402.31;4969879;28;20129;-69
2023/01/21 07:35:14;;;;;;;25.52;13.80;;;-1.60;99.90;;;-2.26;100.00;98403.28;5002067;28;20051;-69
2023/01/21 07:37:41;;;;;;;22.20;11.73;;;-1.50;99.90;;;-2.38;100.00;98406.44;4990055;28;20046;-69
2023/01/21 07:40:09;;;;;;;27.30;14.57;;;-1.50;99.90;;;-2.40;100.00;98409.78;4999793;28;20173;-68
2023/01/21 07:42:36;;;;;;;28.25;16.15;;;-1.60;99.90;;;-2.54;100.00;98412.00;5002401;28;20049;-69
2023/01/21 07:45:04;;;;;;;27.13;13.45;;;-1.70;99.90;;;-2.46;100.00;98413.06;4968950;28;20069;-69
2023/01/21 07:47:31;;;;;;;29.65;15.07;;;-1.70;99.90;;;-2.62;100.00;98409.31;5003086;28;20080;-68
2023/01/21 07:50:03;;;;;;;25.88;13.43;;;-1.80;99.90;;;-2.65;100.00;98413.44;5000053;28;20053;-69
2023/01/21 07:52:31;;;;;;;24.73;13.13;;;-1.80;99.90;;;-2.67;100.00;98404.91;4986813;28;20077;-68
2023/01/21 07:54:58;;;;;;;28.08;12.55;;;-1.90;99.90;;;-2.77;100.00;98416.56;4980818;28;20108;-69
2023/01/21 07:57:25;;;;;;;32.95;14.82;;;-1.90;99.90;;;-2.85;100.00;98418.03;4969806;28;20116;-69
2023/01/21 07:59:52;;;;;;;28.05;14.25;;;-2.00;99.90;;;-2.91;100.00;98425.53;4985222;28;20112;-69
2023/01/21 08:02:19;;;;;;;22.25;11.52;;;-2.10;99.90;;;-2.74;100.00;98424.25;4999458;28;20133;-68
2023/01/21 08:04:46;;;;;;;23.63;12.23;;;-2.00;99.90;;;-2.69;100.00;98429.44;4999889;28;20050;-69
2023/01/21 08:07:13;;;;;;;28.27;13.68;;;-1.90;99.90;;;-2.69;100.00;98437.06;4987590;28;20045;-69
2023/01/21 08:09:41;;;;;;;24.05;12.52;;;-1.90;99.90;;;-2.87;100.00;98451.06;4983033;28;20057;-69
2023/01/21 08:12:10;;;;;;;20.48;10.32;;;-2.00;99.90;;;-2.72;100.00;98444.63;4980275;28;20159;-68
2023/01/21 08:14:37;;;;;;;28.13;13.43;;;-1.90;99.90;;;-2.75;100.00;98440.31;5001256;28;20080;-69
2023/01/21 08:17:04;;;;;;;24.95;13.77;;;-1.90;99.90;;;-2.69;100.00;98432.84;4983225;28;20108;-69
2023/01/21 08:19:31;;;;;;;23.80;12.80;;;-1.80;99.90;;;-2.55;100.00;98449.28;5000125;28;20133;-69
2023/01/21 08:21:58;;;;;;;28.15;13.60;;;-1.70;99.90;;;-2.58;100.00;98454.31;5001505;28;20057;-69
2023/01/21 08:24:25;;;;;;;30.90;12.05;;;-1.70;99.90;;;-2.69;100.00;98448.09;5003057;28;20061;-69
2023/01/21 08:26:56;;;;;;;27.17;13.43;;;-1.70;99.90;;;-2.54;100.00;98450.97;4985597;28;20061;-68
2023/01/21 08:29:24;;;;;;;26.88;14.27;;;-1.70;99.90;;;-2.45;100.00;98460.50;4981727;28;20050;-69
2023/01/21 08:31:51;;;;;;;25.17;14.70;;;-1.60;99.90;;;-2.54;100.00;98461.16;4999654;28;20465;-69
2023/01/21 08:34:19;;;;;;;23.38;12.43;;;-1.60;99.90;;;-2.35;100.00;98464.13;4970442;28;20058;-69
2023/01/21 08:36:46;;;;;;;25.95;14.30;;;-1.50;99.90;;;-2.37;100.00;98468.34;5000693;28;20434;-68
2023/01/21 08:39:15;;;;;;;28.42;14.48;;;-1.50;99.90;;;-2.66;100.00;98476.13;4989052;28;20133;-69
2023/01/21 08:41:43;;;;;;;23.73;12.05;;;-1.60;99.90;;;-2.68;100.00;98470.13;4989736;28;20061;-69
2023/01/21 08:44:10;;;;;;;26.15;14.30;;;-1.60;99.90;;;-2.53;100.00;98469.66;4999716;28;20090;-68
2023/01/21 08:46:37;;;;;;;25.83;13.43;;;-1.60;99.90;;;-2.70;100.00;98474.31;4998981;28;20042;-68
2023/01/21 08:49:05;;;;;;;25.25;13.15;;;-1.80;99.90;;;-2.56;100.00;98472.97;4986292;28;20076;-68
2023/01/21 08:51:32;;;;;;;32.60;15.00;;;-1.70;99.90;;;-2.53;100.00;98480.69;4970036;28;20129;-68
2023/01/21 08:53:59;;;;;;;20.75;10.68;;;-1.60;99.90;;;-2.28;100.00;98481.25;4997121;28;20060;-69
2023/01/21 08:56:26;;;;;;;29.77;13.32;;;-1.50;99.90;;;-2.00;100.00;98484.41;5001074;28;20054;-69
2023/01/21 08:58:55;;;;;;;24.65;12.18;;;-1.20;99.90;;;-2.01;100.00;98480.13;4998959;28;20054;-69
2023/01/21 09:01:24;;;;;;;26.75;12.85;;;-1.20;99.90;;;-2.16;100.00;98478.97;4999284;28;20045;-69
2023/01/21 09:03:56;;;;;;;23.35;13.93;;;-1.10;99.90;;;-1.85;100.00;98477.09;4986028;28;20144;-68
2023/01/21 09:06:29;;;;;;;25.25;12.70;;;-0.90;99.90;;;-1.71;100.00;98487.56;5004496;28;20501;-68
2023/01/21 09:08:57;;;;;;;23.52;12.75;;;-0.70;99.90;;;-1.78;100.00;98480.63;4982805;28;20042;-68
2023/01/21 09:11:26;;;;;;;29.30;15.57;;;-0.70;99.90;;;-1.71;100.00;98485.00;5006123;28;20088;-69
2023/01/21 09:13:53;;;;;;;34.00;15.13;;;-0.70;99.90;;;-1.86;100.00;98480.47;4981440;28;20050;-68
2023/01/21 09:16:22;;;;;;;22.33;12.95;;;-0.60;99.90;;;-1.67;100.00;98478.31;4988889;28;20057;-69
2023/01/21 09:18:49;;;;;;;24.35;12.90;;;-0.40;99.90;;;-1.73;100.00;98473.97;4981277;28;20204;-69
2023/01/21 09:21:16;;;;;;;24.20;14.60;;;-0.60;99.90;;;-1.48;100.00;98480.41;4992111;28;20073;-69
2023/01/21 09:23:43;;;;;;;23.95;13.77;;;-0.50;99.90;;;-1.55;100.00;98479.41;4986656;28;20050;-68
2023/01/21 09:26:17;;;;;;;26.40;16.65;;;-0.50;99.90;;;-1.45;100.00;98475.34;4986132;28;20099;-68
2023/01/21 09:28:50;;;;;;;23.98;13.38;;;-0.40;99.90;;;-1.44;100.00;98484.69;5001828;28;20069;-69
2023/01/21 09:31:20;;;;;;;;;;;-0.30;99.90;;;-1.60;100.00;98485.22;4983628;28;20065;-69
2023/01/21 09:33:53;;;;;;;28.05;13.95;;;-0.40;99.90;;;-1.42;100.00;98490.69;4988319;28;20019;-69
2023/01/21 09:36:24;;;;;;;20.80;12.95;;;-0.40;99.90;;;-1.41;100.00;98491.56;4990447;28;20162;-68
2023/01/21 09:38:51;;;;;;;30.55;15.35;;;-0.30;99.90;;;-1.84;100.00;98493.22;4988017;28;20054;-69
2023/01/21 09:41:34;;;;;;;27.77;15.70;;;-0.60;99.90;;;-1.80;100.00;98497.53;4967644;28;20058;-68
2023/01/21 09:44:09;;;;;;;23.08;10.98;;;-0.70;99.90;;;-1.86;100.00;98497.44;5006514;28;20045;-68
2023/01/21 09:47:09;;;;;;;22.90;14.25;;;-0.60;99.90;;;-2.16;100.00;98506.09;5000257;28;20492;-68
2023/01/21 09:49:53;;;;;;;26.48;14.20;;;-0.80;99.90;;;-1.90;100.00;98507.53;5004151;28;20060;-68
2023/01/21 09:52:39;;;;;;;28.33;15.82;;;-0.80;99.90;;;-2.18;100.00;98510.28;5000104;28;20053;-68
2023/01/21 09:55:34;;;;;;;21.40;12.40;;;-1.00;99.90;;;-2.01;100.00;98525.94;4989585;28;20045;-68
2023/01/21 09:58:32;;;;;;;27.05;14.10;;;-0.80;99.90;;;-1.52;100.00;98521.91;4988787;28;20050;-68
2023/01/21 10:01:32;;;;;;;25.05;13.80;;;-0.50;99.90;;;-1.28;100.00;98516.41;4984887;28;20058;-68
2023/01/21 10:04:45;;;;;;;21.17;11.77;;;-0.10;99.90;;;-1.28;100.00;98519.84;4985557;28;20054;-69
2023/01/21 10:07:36;;;;;;;26.38;14.50;;;0.10;99.90;;;-1.47;100.00;98520.31;4986246;28;20061;-68
2023/01/21 10:10:20;;;;;;;26.40;14.85;;;-0.10;99.90;;;-1.27;100.00;98518.16;4971824;28;20116;-68
2023/01/21 10:13:03;;;;;;;28.70;16.40;;;-0.10;99.90;;;-1.70;100.00;98524.91;5001409;28;20483;-69
2023/01/21 10:16:15;;;;;;;21.10;13.88;;;-0.30;99.90;;;-1.54;100.00;98523.56;4987678;28;20346;-69
2023/01/21 10:18:46;;;;;;;23.45;13.15;;;-0.40;99.90;;;-1.46;100.00;98534.72;4996202;28;20050;-68
2023/01/21 10:21:22;;;;;;;26.58;14.25;;;-0.30;99.90;;;-1.41;100.00;98530.63;4986948;28;20540;-69
2023/01/21 10:23:58;;;;;;;27.38;14.43;;;-0.30;99.90;;;-1.60;100.00;98533.59;5001237;28;20058;-68
2023/01/21 10:26:27;;;;;;;31.13;17.75;;;-0.30;99.90;;;-1.84;100.00;98524.63;4988324;28;20057;-68
2023/01/21 10:28:54;;;;;;;28.02;13.07;;;-0.60;99.90;;;-1.66;100.00;98530.94;4986151;28;20516;-69
2023/01/21 10:31:28;;;;;;;24.98;15.25;;;-0.40;99.90;;;-1.52;100.00;98527.84;4983783;28;20046;-69
2023/01/21 10:33:56;;;;;;;26.52;14.52;;;-0.30;99.90;;;-1.66;100.00;98530.94;4999960;28;20053;-69